createdAt,value
2022-07-29T00:01:45.261Z,2.10
2022-07-29T00:04:14.496Z,2.13
2022-07-29T00:06:43.538Z,2.53
2022-07-29T00:09:12.287Z,2.10
2022-07-29T00:11:40.923Z,2.20
2022-07-29T00:14:09.478Z,2.30
2022-07-29T00:16:39.783Z,2.28
2022-07-29T00:19:08.366Z,1.98
2022-07-29T00:21:36.933Z,2.53
2022-07-29T00:24:05.622Z,2.60
2022-07-29T00:26:34.135Z,1.67
2022-07-29T00:29:32.616Z,2.40
2022-07-29T00:31:52.496Z,2.25
2022-07-29T00:34:38.343Z,2.28
2022-07-29T00:37:07.955Z,2.05
2022-07-29T00:39:36.638Z,2.60
2022-07-29T00:42:05.657Z,2.60
2022-07-29T00:44:38.791Z,2.35
2022-07-29T00:47:08.987Z,1.98
2022-07-29T00:49:37.815Z,2.33
2022-07-29T00:52:06.913Z,2.70
2022-07-29T00:54:35.762Z,2.47
2022-07-29T00:57:08.933Z,2.50
2022-07-29T00:59:37.538Z,2.08
2022-07-29T01:02:06.431Z,2.17
2022-07-29T01:04:36.694Z,2.10
2022-07-29T01:07:05.523Z,2.25
2022-07-29T01:09:46.271Z,2.20
2022-07-29T01:12:16.474Z,2.88
2022-07-29T01:14:45.279Z,2.50
2022-07-29T01:17:16.918Z,2.70
2022-07-29T01:19:51.743Z,2.63
2022-07-29T01:22:38.268Z,2.50
2022-07-29T01:25:23.035Z,2.60
2022-07-29T01:28:03.962Z,2.67
2022-07-29T01:30:35.716Z,2.30
2022-07-29T01:33:06.107Z,2.65
2022-07-29T01:35:36.889Z,2.40
2022-07-29T01:38:09.084Z,2.47
2022-07-29T01:40:40.017Z,2.30
2022-07-29T01:43:12.344Z,2.22
2022-07-29T01:45:43.821Z,1.92
2022-07-29T01:48:15.082Z,2.55
2022-07-29T01:50:48.567Z,2.45
2022-07-29T01:53:19.604Z,2.50
2022-07-29T01:55:48.812Z,2.38
2022-07-29T01:58:19.938Z,2.97
2022-07-29T02:00:51.378Z,2.50
2022-07-29T02:03:20.769Z,2.38
2022-07-29T02:05:50.972Z,2.80
2022-07-29T02:08:21.020Z,2.35
2022-07-29T02:10:50.265Z,2.65
2022-07-29T02:13:19.850Z,2.90
2022-07-29T02:15:51.131Z,2.42
2022-07-29T02:18:20.680Z,2.70
2022-07-29T02:20:50.969Z,2.80
2022-07-29T02:23:21.820Z,2.50
2022-07-29T02:25:51.537Z,3.75
2022-07-29T02:28:21.919Z,2.85
2022-07-29T02:30:53.922Z,3.08
2022-07-29T02:33:23.360Z,2.53
2022-07-29T02:35:52.155Z,2.90
2022-07-29T02:38:38.823Z,2.42
2022-07-29T02:41:12.429Z,2.63
2022-07-29T02:43:42.240Z,2.78
2022-07-29T02:46:29.358Z,2.45
2022-07-29T02:48:59.844Z,2.95
2022-07-29T02:51:43.350Z,2.85
2022-07-29T02:54:14.477Z,2.63
2022-07-29T02:56:43.367Z,3.13
2022-07-29T02:59:14.405Z,2.65
2022-07-29T03:01:45.860Z,2.95
2022-07-29T03:04:15.499Z,2.75
2022-07-29T03:06:45.831Z,2.50
2022-07-29T03:09:15.024Z,2.88
2022-07-29T03:11:49.817Z,3.50
2022-07-29T03:14:21.221Z,2.97
2022-07-29T03:16:52.239Z,3.47
2022-07-29T03:19:21.732Z,2.80
2022-07-29T03:21:50.679Z,3.30
2022-07-29T03:24:32.605Z,2.85
2022-07-29T03:27:01.264Z,3.25
2022-07-29T03:29:33.433Z,2.72
2022-07-29T03:32:08.001Z,3.47
2022-07-29T03:34:37.440Z,2.35
2022-07-29T03:37:07.151Z,2.70
2022-07-29T03:39:38.386Z,2.60
2022-07-29T03:42:08.483Z,3.05
2022-07-29T03:44:38.009Z,3.03
2022-07-29T03:47:09.783Z,2.92
2022-07-29T03:49:39.222Z,2.50
2022-07-29T03:52:08.212Z,3.35
2022-07-29T03:54:36.869Z,2.42
2022-07-29T03:57:05.421Z,3.20
2022-07-29T03:59:35.964Z,2.97
2022-07-29T04:02:05.660Z,3.03
2022-07-29T04:04:37.252Z,2.92
2022-07-29T04:07:06.178Z,2.80
2022-07-29T04:09:34.716Z,3.25
2022-07-29T04:12:04.454Z,2.95
2022-07-29T04:14:33.920Z,2.80
2022-07-29T04:17:02.570Z,2.85
2022-07-29T04:19:31.133Z,2.63
2022-07-29T04:22:01.533Z,2.65
2022-07-29T04:24:30.527Z,3.00
2022-07-29T04:26:59.529Z,2.83
2022-07-29T04:29:28.254Z,2.85
2022-07-29T04:31:57.076Z,2.40
2022-07-29T04:34:28.276Z,2.85
2022-07-29T04:36:57.667Z,3.15
2022-07-29T04:39:29.677Z,4.85
2022-07-29T04:41:59.410Z,4.80
2022-07-29T04:44:29.188Z,6.20
2022-07-29T04:46:58.148Z,5.43
2022-07-29T04:49:27.299Z,4.95
2022-07-29T04:51:56.498Z,4.22
2022-07-29T04:54:25.750Z,4.90
2022-07-29T04:56:59.260Z,4.20
2022-07-29T04:59:28.386Z,3.33
2022-07-29T05:01:57.171Z,4.25
2022-07-29T05:04:25.974Z,4.43
2022-07-29T05:06:54.553Z,3.60
2022-07-29T05:09:23.050Z,3.40
2022-07-29T05:11:51.763Z,3.40
2022-07-29T05:14:21.874Z,3.50
2022-07-29T05:16:52.338Z,3.22
2022-07-29T05:19:20.846Z,3.10
2022-07-29T05:21:49.358Z,3.00
2022-07-29T05:24:18.219Z,3.33
2022-07-29T05:26:46.939Z,3.70
2022-07-29T05:29:43.982Z,2.97
2022-07-29T05:32:05.675Z,2.88
2022-07-29T05:34:34.220Z,3.40
2022-07-29T05:37:02.923Z,3.05
2022-07-29T05:39:47.229Z,2.63
2022-07-29T05:42:18.110Z,2.80
2022-07-29T05:44:46.664Z,3.15
2022-07-29T05:47:17.070Z,2.95
2022-07-29T05:49:45.534Z,2.78
2022-07-29T05:52:14.655Z,3.10
2022-07-29T05:54:43.156Z,2.90
2022-07-29T05:57:12.083Z,3.30
2022-07-29T05:59:40.687Z,2.95
2022-07-29T06:02:09.221Z,2.92
2022-07-29T06:04:39.192Z,2.80
2022-07-29T06:07:08.103Z,3.40
2022-07-29T06:09:36.712Z,2.83
2022-07-29T06:12:05.402Z,2.80
2022-07-29T06:14:33.965Z,2.90
2022-07-29T06:17:02.534Z,2.87
2022-07-29T06:19:30.993Z,3.07
2022-07-29T06:22:00.870Z,3.03
2022-07-29T06:24:29.365Z,2.70
2022-07-29T06:26:58.146Z,3.27
2022-07-29T06:29:26.932Z,2.90
2022-07-29T06:31:55.351Z,2.70
2022-07-29T06:34:24.172Z,2.83
2022-07-29T06:36:53.858Z,2.80
2022-07-29T06:39:24.243Z,2.80
2022-07-29T06:41:53.254Z,3.00
2022-07-29T06:44:21.900Z,2.80
2022-07-29T06:46:52.743Z,2.33
2022-07-29T06:49:21.486Z,2.80
2022-07-29T06:51:50.287Z,2.77
2022-07-29T06:54:19.120Z,3.00
2022-07-29T06:56:49.819Z,2.60
2022-07-29T06:59:18.545Z,2.13
2022-07-29T07:01:48.312Z,2.00
2022-07-29T07:04:19.430Z,2.50
2022-07-29T07:06:48.524Z,2.40
2022-07-29T07:09:17.397Z,2.10
2022-07-29T07:11:46.225Z,2.67
2022-07-29T07:14:20.185Z,2.40
2022-07-29T07:16:49.364Z,3.20
2022-07-29T07:19:21.481Z,2.30
2022-07-29T07:21:50.219Z,2.67
2022-07-29T07:24:19.049Z,2.33
2022-07-29T07:26:47.952Z,2.77
2022-07-29T07:29:16.533Z,2.30
2022-07-29T07:31:46.895Z,15.47
2022-07-29T07:34:15.871Z,1.77
2022-07-29T07:36:44.764Z,2.07
2022-07-29T07:39:15.195Z,2.00
2022-07-29T07:41:43.796Z,1.77
2022-07-29T07:44:16.031Z,1.60
2022-07-29T07:46:46.702Z,2.30
2022-07-29T07:49:15.225Z,1.97
2022-07-29T07:51:43.875Z,1.70
2022-07-29T07:54:20.467Z,1.50
2022-07-29T07:56:53.094Z,1.67
2022-07-29T07:59:22.052Z,1.63
2022-07-29T08:01:55.519Z,1.67
2022-07-29T08:04:28.647Z,1.53
2022-07-29T08:06:58.208Z,1.87
2022-07-29T08:09:29.636Z,1.60
2022-07-29T08:11:59.147Z,1.60
2022-07-29T08:14:28.030Z,1.73
2022-07-29T08:17:00.249Z,1.80
2022-07-29T08:19:29.088Z,1.80
2022-07-29T08:21:57.814Z,1.50
2022-07-29T08:24:43.843Z,1.50
2022-07-29T08:27:40.836Z,1.60
2022-07-29T08:30:01.567Z,1.80
2022-07-29T08:32:52.686Z,1.90
2022-07-29T08:35:20.990Z,1.97
2022-07-29T08:37:49.681Z,1.90
2022-07-29T08:40:18.346Z,1.40
2022-07-29T08:42:46.941Z,1.87
2022-07-29T08:45:15.478Z,1.60
2022-07-29T08:47:47.261Z,1.77
2022-07-29T08:50:16.470Z,1.80
2022-07-29T08:52:45.002Z,1.77
2022-07-29T08:55:14.424Z,2.03
2022-07-29T08:57:52.028Z,1.80
2022-07-29T09:00:23.830Z,1.80
2022-07-29T09:02:56.864Z,1.80
2022-07-29T09:05:26.214Z,2.13
2022-07-29T09:07:54.803Z,2.03
2022-07-29T09:10:23.657Z,1.90
2022-07-29T09:12:53.289Z,2.10
2022-07-29T09:15:22.162Z,1.80
2022-07-29T09:17:51.384Z,2.03
2022-07-29T09:20:22.615Z,2.03
2022-07-29T09:22:53.629Z,2.03
2022-07-29T09:25:34.858Z,2.20
2022-07-29T09:28:09.380Z,2.20
2022-07-29T09:30:38.047Z,2.17
2022-07-29T09:33:06.543Z,2.87
2022-07-29T09:35:36.965Z,2.30
2022-07-29T09:38:13.203Z,2.87
2022-07-29T09:40:42.501Z,2.60
2022-07-29T09:43:14.532Z,2.63
2022-07-29T09:45:43.171Z,2.70
2022-07-29T09:48:18.460Z,2.77
2022-07-29T09:50:50.727Z,3.07
2022-07-29T09:53:33.411Z,3.33
2022-07-29T09:56:02.069Z,2.80
2022-07-29T09:58:30.693Z,2.90
2022-07-29T10:00:59.543Z,2.40
2022-07-29T10:03:28.265Z,2.90
2022-07-29T10:06:12.279Z,2.70
2022-07-29T10:08:40.857Z,2.83
2022-07-29T10:11:13.534Z,2.60
2022-07-29T10:13:42.143Z,2.40
2022-07-29T10:16:11.246Z,2.53
2022-07-29T10:18:41.442Z,2.47
2022-07-29T10:21:34.903Z,2.70
2022-07-29T10:24:01.782Z,2.60
2022-07-29T10:26:30.980Z,2.60
2022-07-29T10:28:59.516Z,2.93
2022-07-29T10:31:31.681Z,2.43
2022-07-29T10:34:05.185Z,2.77
2022-07-29T10:36:55.416Z,2.30
2022-07-29T10:39:41.910Z,2.70
2022-07-29T10:42:20.378Z,3.20
2022-07-29T10:45:02.407Z,2.80
2022-07-29T10:47:31.074Z,2.90
2022-07-29T10:50:01.356Z,3.00
2022-07-29T10:52:44.943Z,2.77
2022-07-29T10:55:33.055Z,2.60
2022-07-29T10:58:14.415Z,2.70
2022-07-29T11:00:42.862Z,3.00
2022-07-29T11:03:29.129Z,2.93
2022-07-29T11:05:59.928Z,2.47
2022-07-29T11:08:29.596Z,2.83
2022-07-29T11:11:12.907Z,2.77
2022-07-29T11:13:51.407Z,2.60
2022-07-29T11:16:25.248Z,2.80
2022-07-29T11:19:26.362Z,2.10
2022-07-29T11:21:58.821Z,2.67
2022-07-29T11:24:30.197Z,2.20
2022-07-29T11:27:13.197Z,2.03
2022-07-29T11:29:50.635Z,2.13
2022-07-29T11:32:23.449Z,1.67
2022-07-29T11:34:52.845Z,2.33
2022-07-29T11:37:27.949Z,2.23
2022-07-29T11:40:20.276Z,1.90
2022-07-29T11:42:51.973Z,1.80
2022-07-29T11:45:48.142Z,1.70
2022-07-29T11:48:31.381Z,2.00
2022-07-29T11:51:00.881Z,2.00
2022-07-29T11:53:32.926Z,2.20
2022-07-29T11:56:02.674Z,2.00
2022-07-29T11:58:32.204Z,2.33
2022-07-29T12:04:04.962Z,2.00
2022-07-29T12:06:35.524Z,1.90
2022-07-29T12:07:02.432Z,2.47
2022-07-29T12:09:14.510Z,2.10
2022-07-29T12:11:45.039Z,2.20
2022-07-29T12:14:27.867Z,2.20
2022-07-29T12:16:58.092Z,2.10
2022-07-29T12:19:27.324Z,2.20
2022-07-29T12:21:59.782Z,2.20
2022-07-29T12:24:45.234Z,2.43
2022-07-29T12:27:14.705Z,2.90
2022-07-29T12:29:47.974Z,2.10
2022-07-29T12:32:19.656Z,2.50
2022-07-29T12:34:48.703Z,2.57
2022-07-29T12:37:17.282Z,2.20
2022-07-29T12:39:46.373Z,2.10
2022-07-29T12:42:18.785Z,2.50
2022-07-29T12:44:48.550Z,2.60
2022-07-29T12:47:17.136Z,2.40
2022-07-29T12:49:47.818Z,2.40
2022-07-29T12:52:29.856Z,2.63
2022-07-29T12:54:58.345Z,2.00
2022-07-29T12:57:26.970Z,3.78
2022-07-29T13:00:08.838Z,2.40
2022-07-29T13:02:37.775Z,2.30
2022-07-29T13:05:09.354Z,2.40
2022-07-29T13:07:54.980Z,2.30
2022-07-29T13:10:25.954Z,2.63
2022-07-29T13:13:09.029Z,2.07
2022-07-29T13:15:37.812Z,2.47
2022-07-29T13:18:06.980Z,2.27
2022-07-29T13:20:36.900Z,2.77
2022-07-29T13:23:05.386Z,2.50
2022-07-29T13:25:35.392Z,2.60
2022-07-29T13:28:03.877Z,2.40
2022-07-29T13:30:32.469Z,2.37
2022-07-29T13:33:01.091Z,2.07
2022-07-29T13:35:30.797Z,2.23
2022-07-29T13:38:00.744Z,3.43
2022-07-29T13:40:30.160Z,2.50
2022-07-29T13:42:58.795Z,2.27
2022-07-29T13:45:28.996Z,2.33
2022-07-29T13:47:57.841Z,2.60
2022-07-29T13:50:26.248Z,2.30
2022-07-29T13:52:54.752Z,2.13
2022-07-29T13:55:24.686Z,2.43
2022-07-29T13:57:53.187Z,2.80
2022-07-29T14:00:21.804Z,2.10
2022-07-29T14:02:50.240Z,3.90
2022-07-29T14:05:18.693Z,2.20
2022-07-29T14:07:47.091Z,2.33
2022-07-29T14:10:19.803Z,2.27
2022-07-29T14:12:50.274Z,2.50
2022-07-29T14:15:18.789Z,2.60
2022-07-29T14:17:47.335Z,2.50
2022-07-29T14:20:17.086Z,2.50
2022-07-29T14:22:45.962Z,2.30
2022-07-29T14:25:15.524Z,2.53
2022-07-29T14:27:44.665Z,2.20
2022-07-29T14:30:15.189Z,2.00
2022-07-29T14:32:43.900Z,1.90
2022-07-29T14:35:14.584Z,2.13
2022-07-29T14:37:43.167Z,2.33
2022-07-29T14:40:11.989Z,2.93
2022-07-29T14:42:40.954Z,2.23
2022-07-29T14:45:10.323Z,2.43
2022-07-29T14:47:40.803Z,2.20
2022-07-29T14:50:09.847Z,2.90
2022-07-29T14:52:38.332Z,2.90
2022-07-29T14:55:19.581Z,2.57
2022-07-29T14:57:48.922Z,2.33
2022-07-29T15:00:17.825Z,2.90
2022-07-29T15:03:01.499Z,2.40
2022-07-29T15:05:31.051Z,3.00
2022-07-29T15:07:59.836Z,2.83
2022-07-29T15:10:29.668Z,3.43
2022-07-29T15:12:58.562Z,2.60
2022-07-29T15:15:27.119Z,2.63
2022-07-29T15:17:57.262Z,2.70
2022-07-29T15:20:28.123Z,2.20
2022-07-29T15:22:57.300Z,2.43
2022-07-29T15:25:26.403Z,2.43
2022-07-29T15:28:01.327Z,2.30
2022-07-29T15:30:33.124Z,2.47
2022-07-29T15:33:04.074Z,2.60
2022-07-29T15:35:32.665Z,2.23
2022-07-29T15:38:01.163Z,2.40
2022-07-29T15:40:29.882Z,2.07
2022-07-29T15:43:01.788Z,2.00
2022-07-29T15:45:32.513Z,2.90
2022-07-29T15:48:03.552Z,2.30
2022-07-29T15:50:32.268Z,3.00
2022-07-29T15:53:00.676Z,2.20
2022-07-29T15:55:29.535Z,2.60
2022-07-29T15:58:00.660Z,2.20
2022-07-29T16:00:29.463Z,2.10
2022-07-29T16:02:58.022Z,2.40
2022-07-29T16:05:29.707Z,2.70
2022-07-29T16:08:00.676Z,2.23
2022-07-29T16:10:29.257Z,2.73
2022-07-29T16:12:57.724Z,2.30
2022-07-29T16:15:26.259Z,2.33
2022-07-29T16:17:54.780Z,2.80
2022-07-29T16:20:23.395Z,2.87
2022-07-29T16:22:53.404Z,2.17
2022-07-29T16:25:29.609Z,2.43
2022-07-29T16:28:08.580Z,3.40
2022-07-29T16:30:37.415Z,2.50
2022-07-29T16:33:08.377Z,2.97
2022-07-29T16:35:40.166Z,2.83
2022-07-29T16:38:10.397Z,3.03
2022-07-29T16:40:38.963Z,2.80
2022-07-29T16:43:07.504Z,2.80
2022-07-29T16:45:41.242Z,3.30
2022-07-29T16:48:14.289Z,3.50
2022-07-29T16:50:43.341Z,4.33
2022-07-29T16:53:13.789Z,2.87
2022-07-29T16:55:42.713Z,3.00
2022-07-29T16:58:11.454Z,3.30
2022-07-29T17:00:40.335Z,2.70
2022-07-29T17:03:09.084Z,3.40
2022-07-29T17:05:52.296Z,4.00
2022-07-29T17:08:24.523Z,3.00
2022-07-29T17:10:53.536Z,3.20
2022-07-29T17:13:22.243Z,3.30
2022-07-29T17:15:50.946Z,3.20
2022-07-29T17:18:19.528Z,2.70
2022-07-29T17:20:48.029Z,3.50
2022-07-29T17:23:16.521Z,3.10
2022-07-29T17:25:46.466Z,3.33
2022-07-29T17:28:15.036Z,2.93
2022-07-29T17:30:43.671Z,3.20
2022-07-29T17:33:12.158Z,3.40
2022-07-29T17:36:12.737Z,2.87
2022-07-29T17:38:41.189Z,2.70
2022-07-29T17:41:11.027Z,3.00
2022-07-29T17:43:39.587Z,2.57
2022-07-29T17:46:09.124Z,2.70
2022-07-29T17:48:38.000Z,3.17
2022-07-29T17:51:06.551Z,3.13
2022-07-29T17:53:35.192Z,2.93
2022-07-29T17:56:04.126Z,3.37
2022-07-29T17:58:35.407Z,2.90
2022-07-29T18:01:04.097Z,3.10
2022-07-29T18:03:32.723Z,3.23
2022-07-29T18:06:01.847Z,3.30
2022-07-29T18:08:30.447Z,3.03
2022-07-29T18:10:58.993Z,3.40
2022-07-29T18:13:27.620Z,2.83
2022-07-29T18:16:00.315Z,3.70
2022-07-29T18:18:29.047Z,3.77
2022-07-29T18:20:57.763Z,3.83
2022-07-29T18:23:26.416Z,3.70
2022-07-29T18:25:54.844Z,3.07
2022-07-29T18:28:23.407Z,3.63
2022-07-29T18:30:52.844Z,3.30
2022-07-29T18:33:23.017Z,3.10
2022-07-29T18:35:52.458Z,3.60
2022-07-29T18:38:40.010Z,3.67
2022-07-29T18:41:08.828Z,3.73
2022-07-29T18:43:37.561Z,3.70
2022-07-29T18:46:06.876Z,3.27
2022-07-29T18:48:37.078Z,3.50
2022-07-29T18:51:09.036Z,3.40
2022-07-29T18:53:38.269Z,3.70
2022-07-29T18:56:06.908Z,3.87
2022-07-29T18:58:37.173Z,4.20
2022-07-29T19:01:05.740Z,3.87
2022-07-29T19:03:34.289Z,4.00
2022-07-29T19:06:04.334Z,3.80
2022-07-29T19:08:33.568Z,4.40
2022-07-29T19:11:02.045Z,3.43
2022-07-29T19:13:31.096Z,4.10
2022-07-29T19:15:59.649Z,4.10
2022-07-29T19:18:28.145Z,4.30
2022-07-29T19:20:56.749Z,3.90
2022-07-29T19:23:26.748Z,4.07
2022-07-29T19:25:55.256Z,4.43
2022-07-29T19:28:23.836Z,4.17
2022-07-29T19:30:52.406Z,3.80
2022-07-29T19:33:21.319Z,4.43
2022-07-29T19:35:54.589Z,4.67
2022-07-29T19:38:23.760Z,4.40
2022-07-29T19:40:55.088Z,4.13
2022-07-29T19:43:52.208Z,4.33
2022-07-29T19:46:12.269Z,3.97
2022-07-29T19:48:40.911Z,4.47
2022-07-29T19:51:09.395Z,4.93
2022-07-29T19:53:37.964Z,5.83
2022-07-29T19:56:09.164Z,5.60
2022-07-29T19:58:37.803Z,4.37
2022-07-29T20:01:10.610Z,5.27
2022-07-29T20:03:41.057Z,5.07
2022-07-29T20:06:09.585Z,4.10
2022-07-29T20:08:38.424Z,5.10
2022-07-29T20:11:08.762Z,4.33
2022-07-29T20:13:37.355Z,4.67
2022-07-29T20:16:08.346Z,4.73
2022-07-29T20:18:37.019Z,4.80
2022-07-29T20:21:05.843Z,4.53
2022-07-29T20:23:34.422Z,4.63
2022-07-29T20:26:06.083Z,5.37
2022-07-29T20:28:40.330Z,5.30
2022-07-29T20:31:09.246Z,5.23
2022-07-29T20:33:37.776Z,4.83
2022-07-29T20:36:06.717Z,5.63
2022-07-29T20:38:35.194Z,5.50
2022-07-29T20:41:03.817Z,5.20
2022-07-29T20:43:36.834Z,4.60
2022-07-29T20:46:10.108Z,5.53
2022-07-29T20:48:39.806Z,5.30
2022-07-29T20:51:08.480Z,5.80
2022-07-29T20:53:36.978Z,5.90
2022-07-29T20:56:05.672Z,5.60
2022-07-29T20:58:34.645Z,5.90
2022-07-29T21:01:03.383Z,6.07
2022-07-29T21:03:33.927Z,6.60
2022-07-29T21:06:02.565Z,6.63
2022-07-29T21:08:31.132Z,6.10
2022-07-29T21:10:59.798Z,5.93
2022-07-29T21:13:28.260Z,5.77
2022-07-29T21:16:01.977Z,6.53
2022-07-29T21:18:37.244Z,6.77
2022-07-29T21:21:06.881Z,5.87
2022-07-29T21:23:35.390Z,7.90
2022-07-29T21:26:03.782Z,6.17
2022-07-29T21:28:36.730Z,6.25
2022-07-29T21:31:06.694Z,6.87
2022-07-29T21:33:37.093Z,6.73
2022-07-29T21:36:47.086Z,6.87
2022-07-29T21:38:54.904Z,6.40
2022-07-29T21:41:23.399Z,6.27
2022-07-29T21:43:51.882Z,6.80
2022-07-29T21:46:24.327Z,6.47
2022-07-29T21:48:54.607Z,6.00
2022-07-29T21:51:23.157Z,6.53
2022-07-29T21:53:53.228Z,7.10
2022-07-29T21:56:22.610Z,6.60
2022-07-29T21:58:56.164Z,6.88
2022-07-29T22:01:24.766Z,6.35
2022-07-29T22:03:54.806Z,7.07
2022-07-29T22:06:23.548Z,7.40
2022-07-29T22:08:52.023Z,7.25
2022-07-29T22:11:21.029Z,6.85
2022-07-29T22:13:49.511Z,7.15
2022-07-29T22:16:18.120Z,7.72
2022-07-29T22:18:48.132Z,6.82
2022-07-29T22:21:18.060Z,7.07
2022-07-29T22:23:46.574Z,7.35
2022-07-29T22:26:15.058Z,6.82
2022-07-29T22:28:43.509Z,7.07
2022-07-29T22:31:12.283Z,6.32
2022-07-29T22:33:40.903Z,5.85
2022-07-29T22:36:10.511Z,6.88
2022-07-29T22:38:40.536Z,7.22
2022-07-29T22:41:09.258Z,6.72
2022-07-29T22:43:39.979Z,6.35
2022-07-29T22:46:10.097Z,7.03
2022-07-29T22:48:39.005Z,6.60
2022-07-29T22:51:07.612Z,7.60
2022-07-29T22:53:37.834Z,7.85
2022-07-29T22:56:08.765Z,7.25
2022-07-29T22:58:37.276Z,7.55
2022-07-29T23:01:06.079Z,7.65
2022-07-29T23:03:34.777Z,6.28
2022-07-29T23:06:03.292Z,8.40
2022-07-29T23:08:31.903Z,6.70
2022-07-29T23:11:00.489Z,6.82
2022-07-29T23:13:30.783Z,6.93
2022-07-29T23:15:59.838Z,7.47
2022-07-29T23:18:30.316Z,7.50
2022-07-29T23:20:58.810Z,7.60
2022-07-29T23:23:27.340Z,7.20
2022-07-29T23:26:00.803Z,7.18
2022-07-29T23:28:30.718Z,7.20
2022-07-29T23:30:59.336Z,6.93
2022-07-29T23:33:27.920Z,7.13
2022-07-29T23:35:56.594Z,7.00
2022-07-29T23:38:25.196Z,8.05
2022-07-29T23:40:53.782Z,8.23
2022-07-29T23:43:22.279Z,8.98
2022-07-29T23:45:53.708Z,8.18
2022-07-29T23:48:22.356Z,8.40
2022-07-29T23:50:51.039Z,7.90
2022-07-29T23:53:19.605Z,7.38
2022-07-29T23:55:48.090Z,7.55
2022-07-29T23:58:16.569Z,7.63
